Time;durP1;ratioP1;P1;durP2;ratioP2;P2;SDS_P1;SDS_P2;PMS_P1;PMS_P2;Temp;Humidity;BMP_temperature;BMP_pressure;BME280_temperature;BME280_humidity;BME280_pressure;Samples;Min_cycle;Max_cycle;Signal;HPM_P1;HPM_P2
2023/08/08 00:00:39;;;;;;;1999.90;999.90;;;15.20;99.90;;;;;;5072376;28;20260;-74
2023/08/08 00:03:04;;;;;;;1999.90;999.90;;;15.10;99.90;;;;;;5072403;28;20178;-74
2023/08/08 00:05:30;;;;;;;1999.90;999.90;;;15.10;99.90;;;;;;5076212;28;20635;-74
2023/08/08 00:07:56;;;;;;;1999.90;999.90;;;15.10;99.90;;;;;;5075309;28;20182;-74
2023/08/08 00:10:21;;;;;;;1999.90;999.90;;;15.00;99.90;;;;;;5072570;28;20191;-73
2023/08/08 00:12:47;;;;;;;1999.90;999.90;;;14.90;99.90;;;;;;5072248;28;20167;-73
2023/08/08 00:15:13;;;;;;;1999.90;999.90;;;15.00;99.90;;;;;;5072366;28;20201;-73
2023/08/08 00:17:38;;;;;;;1999.90;999.90;;;15.00;99.90;;;;;;5072599;28;20188;-73
2023/08/08 00:20:05;;;;;;;1999.90;999.90;;;15.00;99.90;;;;;;5072283;28;20186;-73
2023/08/08 00:22:30;;;;;;;1999.90;999.90;;;15.00;99.90;;;;;;5072204;28;20563;-73
2023/08/08 00:24:56;;;;;;;1999.90;999.90;;;14.90;99.90;;;;;;5072313;28;20500;-74
2023/08/08 00:27:22;;;;;;;1999.90;999.90;;;14.90;99.90;;;;;;5072300;28;20530;-73
2023/08/08 00:29:48;;;;;;;1999.90;999.90;;;14.80;99.90;;;;;;5074554;28;20407;-73
2023/08/08 00:32:13;;;;;;;1999.90;999.90;;;14.70;99.90;;;;;;5058257;28;20659;-74
2023/08/08 00:34:39;;;;;;;1999.90;999.90;;;14.60;99.90;;;;;;5077118;28;20174;-74
2023/08/08 00:37:04;;;;;;;1999.90;999.90;;;14.60;99.90;;;;;;5075952;28;20192;-74
2023/08/08 00:39:30;;;;;;;1999.90;999.90;;;14.50;99.90;;;;;;5073769;28;20174;-73
2023/08/08 00:41:55;;;;;;;1999.90;999.90;;;14.50;99.90;;;;;;5072834;28;20178;-74
2023/08/08 00:44:21;;;;;;;1999.90;999.90;;;14.50;99.90;;;;;;5071958;28;20216;-73
2023/08/08 00:46:47;;;;;;;1999.90;999.90;;;14.50;99.90;;;;;;5072109;28;20653;-73
2023/08/08 00:49:12;;;;;;;1999.90;999.90;;;14.60;99.90;;;;;;5072017;28;20173;-73
2023/08/08 00:51:38;;;;;;;1999.90;999.90;;;14.50;99.90;;;;;;5071615;28;20188;-73
2023/08/08 00:54:04;;;;;;;1999.90;999.90;;;14.50;99.90;;;;;;5074024;28;20175;-74
2023/08/08 00:56:31;;;;;;;1999.90;999.90;;;14.40;99.90;;;;;;5075298;28;20205;-75
2023/08/08 00:58:57;;;;;;;1999.90;999.90;;;14.40;99.90;;;;;;5073507;28;20424;-73
2023/08/08 01:01:22;;;;;;;1999.90;999.90;;;14.30;99.90;;;;;;5075208;28;20450;-74
2023/08/08 01:03:48;;;;;;;1999.90;999.90;;;14.20;99.90;;;;;;5076085;28;20259;-74
2023/08/08 01:06:32;;;;;;;1999.90;999.90;;;14.20;99.90;;;;;;5075516;28;20171;-74
2023/08/08 01:09:01;;;;;;;1999.90;999.90;;;14.20;99.90;;;;;;5076792;28;20410;-74
2023/08/08 01:11:29;;;;;;;1999.90;999.90;;;14.20;99.90;;;;;;5077001;28;20434;-73
2023/08/08 01:13:55;;;;;;;1999.90;999.90;;;14.10;99.90;;;;;;5079930;28;20896;-74
2023/08/08 01:16:22;;;;;;;1999.90;999.90;;;14.20;99.90;;;;;;5080473;28;20467;-74
2023/08/08 01:18:49;;;;;;;1999.90;999.90;;;14.20;99.90;;;;;;5076158;28;20418;-73
2023/08/08 01:21:16;;;;;;;1999.90;999.90;;;14.20;99.90;;;;;;5075293;28;20432;-73
2023/08/08 01:24:00;;;;;;;1999.90;999.90;;;14.20;99.90;;;;;;5075667;28;20478;-74
2023/08/08 01:26:27;;;;;;;1999.90;999.90;;;14.20;99.90;;;;;;5057524;28;20427;-74
2023/08/08 01:28:54;;;;;;;1999.90;999.90;;;14.20;99.90;;;;;;5075536;28;20412;-74
2023/08/08 01:31:20;;;;;;;1999.90;999.90;;;14.20;99.90;;;;;;5075269;28;20425;-74
2023/08/08 01:33:46;;;;;;;1999.90;999.90;;;14.30;99.90;;;;;;5075487;28;20491;-73
2023/08/08 01:36:23;;;;;;;1999.90;999.90;;;14.20;99.90;;;;;;5075355;28;20557;-73
2023/08/08 01:38:52;;;;;;;1999.90;999.90;;;14.20;99.90;;;;;;5075455;28;20404;-74
2023/08/08 01:41:19;;;;;;;1999.90;999.90;;;14.20;99.90;;;;;;5075098;28;20495;-73
2023/08/08 01:43:46;;;;;;;1999.90;999.90;;;14.20;99.90;;;;;;5075332;28;20414;-73
2023/08/08 01:46:12;;;;;;;1999.90;999.90;;;14.10;99.90;;;;;;5075278;28;20417;-74
2023/08/08 01:48:37;;;;;;;1999.90;999.90;;;14.10;99.90;;;;;;5075275;28;20422;-74
2023/08/08 01:51:03;;;;;;;1999.90;999.90;;;14.00;99.90;;;;;;5074778;28;20429;-74
2023/08/08 01:53:29;;;;;;;1999.90;999.90;;;13.90;99.90;;;;;;5075256;28;20590;-73
2023/08/08 01:55:54;;;;;;;1999.90;999.90;;;13.80;99.90;;;;;;5075006;28;20204;-73
2023/08/08 01:58:20;;;;;;;1999.90;999.90;;;13.80;99.90;;;;;;5075086;28;20170;-74
2023/08/08 02:00:46;;;;;;;1999.90;999.90;;;13.80;99.90;;;;;;5074814;28;20258;-74
2023/08/08 02:03:12;;;;;;;1999.90;999.90;;;13.80;99.90;;;;;;5074695;28;20171;-73
2023/08/08 02:05:38;;;;;;;1999.90;999.90;;;13.90;99.90;;;;;;5074714;28;20849;-73
2023/08/08 02:08:04;;;;;;;1999.90;999.90;;;13.80;99.90;;;;;;5074900;28;20633;-73
2023/08/08 02:10:30;;;;;;;1999.90;999.90;;;13.90;99.90;;;;;;5074656;28;20201;-73
2023/08/08 02:12:55;;;;;;;1999.90;999.90;;;13.90;99.90;;;;;;5074626;28;20498;-73
2023/08/08 02:15:21;;;;;;;1999.90;999.90;;;13.80;99.90;;;;;;5074709;28;20223;-74
2023/08/08 02:17:47;;;;;;;1999.90;999.90;;;13.80;99.90;;;;;;5074883;28;20171;-73
2023/08/08 02:20:12;;;;;;;1999.90;999.90;;;13.80;99.90;;;;;;5074693;28;20289;-74
2023/08/08 02:22:38;;;;;;;1999.90;999.90;;;13.80;99.90;;;;;;5074953;28;20496;-73
2023/08/08 02:25:04;;;;;;;1999.90;999.90;;;13.80;99.90;;;;;;5075085;28;20171;-74
2023/08/08 02:27:30;;;;;;;1999.90;999.90;;;13.80;99.90;;;;;;5074862;28;20201;-73
2023/08/08 02:29:57;;;;;;;1999.90;999.90;;;13.80;99.90;;;;;;5074709;28;20437;-74
2023/08/08 02:32:23;;;;;;;1999.90;999.90;;;13.80;99.90;;;;;;5074638;28;20192;-74
2023/08/08 02:34:49;;;;;;;1999.90;999.90;;;13.80;99.90;;;;;;5074892;28;20408;-73
2023/08/08 02:37:14;;;;;;;1999.90;999.90;;;13.80;99.90;;;;;;5074636;28;20398;-74
2023/08/08 02:39:41;;;;;;;1999.90;999.90;;;13.90;99.90;;;;;;5074661;28;20175;-74
2023/08/08 02:42:06;;;;;;;1999.90;999.90;;;13.80;99.90;;;;;;5074148;28;20168;-73
2023/08/08 02:44:32;;;;;;;1999.90;999.90;;;13.80;99.90;;;;;;5056507;28;20414;-74
2023/08/08 02:46:57;;;;;;;1999.90;999.90;;;13.80;99.90;;;;;;5074750;28;20183;-74
2023/08/08 02:49:23;;;;;;;1999.90;999.90;;;13.80;99.90;;;;;;5056720;28;20182;-74
2023/08/08 02:51:49;;;;;;;1999.90;999.90;;;13.80;99.90;;;;;;5074080;28;20190;-74
2023/08/08 02:54:14;;;;;;;1999.90;999.90;;;13.70;99.90;;;;;;5056659;28;20181;-73
2023/08/08 02:56:40;;;;;;;1999.90;999.90;;;13.70;99.90;;;;;;5074260;28;20195;-74
2023/08/08 02:59:05;;;;;;;1999.90;999.90;;;13.70;99.90;;;;;;5074392;28;20167;-73
2023/08/08 03:01:31;;;;;;;1999.90;999.90;;;13.70;99.90;;;;;;5073663;28;20205;-73
2023/08/08 03:03:57;;;;;;;1999.90;999.90;;;13.60;99.90;;;;;;5074128;28;20166;-74
2023/08/08 03:06:22;;;;;;;1999.90;999.90;;;13.70;99.90;;;;;;5074263;28;20253;-73
2023/08/08 03:08:48;;;;;;;1999.90;999.90;;;13.70;99.90;;;;;;5074286;28;20167;-74
2023/08/08 03:11:13;;;;;;;1999.90;999.90;;;13.70;99.90;;;;;;5073570;28;20198;-73
2023/08/08 03:13:39;;;;;;;1999.90;999.90;;;13.60;99.90;;;;;;5074157;28;20754;-74
2023/08/08 03:16:04;;;;;;;1999.90;999.90;;;13.60;99.90;;;;;;5074036;28;20196;-73
2023/08/08 03:18:30;;;;;;;1999.90;999.90;;;13.60;99.90;;;;;;5073735;28;20169;-73
2023/08/08 03:20:56;;;;;;;1999.90;999.90;;;13.60;99.90;;;;;;5055815;28;20197;-74
2023/08/08 03:23:23;;;;;;;1999.90;999.90;;;13.50;99.90;;;;;;5073939;28;20177;-73
2023/08/08 03:25:48;;;;;;;1999.90;999.90;;;13.50;99.90;;;;;;5078828;28;20167;-74
2023/08/08 03:28:14;;;;;;;1999.90;999.90;;;13.40;99.90;;;;;;5078723;28;20429;-74
2023/08/08 03:30:39;;;;;;;1999.90;999.90;;;13.40;99.90;;;;;;5080734;28;20225;-74
2023/08/08 03:33:05;;;;;;;1999.90;999.90;;;13.50;99.90;;;;;;5078322;28;20258;-73
2023/08/08 03:35:31;;;;;;;1999.90;999.90;;;13.40;99.90;;;;;;5079075;28;20221;-74
2023/08/08 03:37:56;;;;;;;1999.90;999.90;;;13.50;99.90;;;;;;5060262;28;20631;-73
2023/08/08 03:40:22;;;;;;;1999.90;999.90;;;13.50;99.90;;;;;;5078117;28;20202;-75
2023/08/08 03:42:47;;;;;;;1999.90;999.90;;;13.40;99.90;;;;;;5078738;28;20170;-74
2023/08/08 03:45:13;;;;;;;1999.90;999.90;;;13.50;99.90;;;;;;5079034;28;20182;-74
2023/08/08 03:47:39;;;;;;;1999.90;999.90;;;13.50;99.90;;;;;;5077934;28;20659;-74
2023/08/08 03:50:06;;;;;;;1999.90;999.90;;;13.40;99.90;;;;;;5077374;28;20264;-74
2023/08/08 03:52:34;;;;;;;1999.90;999.90;;;13.50;99.90;;;;;;5076672;28;20251;-74
2023/08/08 03:54:59;;;;;;;1999.90;999.90;;;13.40;99.90;;;;;;5077052;28;20529;-74
2023/08/08 03:57:25;;;;;;;1999.90;999.90;;;13.50;99.90;;;;;;5077418;28;20403;-73
2023/08/08 03:59:50;;;;;;;1999.90;999.90;;;13.60;99.90;;;;;;5079006;28;20168;-74
2023/08/08 04:02:16;;;;;;;1999.90;999.90;;;13.60;99.90;;;;;;5076652;28;20502;-74
2023/08/08 04:04:42;;;;;;;1999.90;999.90;;;13.60;99.90;;;;;;5078052;28;20171;-74
2023/08/08 04:07:07;;;;;;;1999.90;999.90;;;13.60;99.90;;;;;;5076300;28;20165;-74
2023/08/08 04:09:33;;;;;;;1999.90;999.90;;;13.50;99.90;;;;;;5076970;28;20182;-74
2023/08/08 04:11:58;;;;;;;1999.90;999.90;;;13.60;99.90;;;;;;5077169;28;20167;-73
2023/08/08 04:14:24;;;;;;;1999.90;999.90;;;13.70;99.90;;;;;;5058907;28;20724;-74
2023/08/08 04:16:49;;;;;;;1999.90;999.90;;;13.70;99.90;;;;;;5077541;28;20209;-73
2023/08/08 04:19:15;;;;;;;1999.90;999.90;;;13.70;99.90;;;;;;5077286;28;20244;-74
2023/08/08 04:21:41;;;;;;;1999.90;999.90;;;13.70;99.90;;;;;;5058748;28;20197;-74
2023/08/08 04:24:07;;;;;;;1999.90;999.90;;;13.70;99.90;;;;;;5075990;28;20184;-74
2023/08/08 04:26:33;;;;;;;1999.90;999.90;;;13.70;99.90;;;;;;5076600;28;20548;-74
2023/08/08 04:28:59;;;;;;;1999.90;999.90;;;13.70;99.90;;;;;;5075585;28;20410;-74
2023/08/08 04:31:25;;;;;;;1999.90;999.90;;;13.60;99.90;;;;;;5075104;28;20439;-73
2023/08/08 04:33:52;;;;;;;1999.90;999.90;;;13.70;99.90;;;;;;5076078;28;20175;-75
2023/08/08 04:36:17;;;;;;;1999.90;999.90;;;13.80;99.90;;;;;;5076026;28;20870;-74
2023/08/08 04:38:43;;;;;;;1999.90;999.90;;;13.80;99.90;;;;;;5075215;28;20408;-74
2023/08/08 04:41:09;;;;;;;1999.90;999.90;;;13.90;99.90;;;;;;5072072;28;20245;-74
2023/08/08 04:43:34;;;;;;;1999.90;999.90;;;13.90;99.90;;;;;;5072382;28;20198;-74
2023/08/08 04:46:00;;;;;;;1999.90;999.90;;;13.90;99.90;;;;;;5071356;28;20168;-74
2023/08/08 04:48:25;;;;;;;1999.90;999.90;;;14.00;99.90;;;;;;5072389;28;20178;-74
2023/08/08 04:50:51;;;;;;;1999.90;999.90;;;14.00;99.90;;;;;;5072335;28;20189;-74
2023/08/08 04:53:16;;;;;;;1999.90;999.90;;;14.00;99.90;;;;;;5072204;28;20171;-73
2023/08/08 04:55:42;;;;;;;1999.90;999.90;;;14.10;99.90;;;;;;5072329;28;20202;-74
2023/08/08 04:58:07;;;;;;;1999.90;999.90;;;14.10;99.90;;;;;;5072469;28;20264;-74
2023/08/08 05:00:33;;;;;;;1999.90;999.90;;;14.20;99.90;;;;;;5071983;28;20311;-74
2023/08/08 05:02:59;;;;;;;1999.90;999.90;;;14.20;99.90;;;;;;5072022;28;20535;-74
2023/08/08 05:05:24;;;;;;;1999.90;999.90;;;14.30;99.90;;;;;;5072517;28;20203;-74
2023/08/08 05:07:50;;;;;;;1999.90;999.90;;;14.30;99.90;;;;;;5072374;28;20178;-74
2023/08/08 05:10:16;;;;;;;1999.90;999.90;;;14.30;99.90;;;;;;5072294;28;20197;-74
2023/08/08 05:12:41;;;;;;;1999.90;999.90;;;14.30;99.90;;;;;;5071683;28;20199;-74
2023/08/08 05:15:07;;;;;;;1999.90;999.90;;;14.30;99.90;;;;;;5071682;28;20200;-74
2023/08/08 05:17:33;;;;;;;1999.90;999.90;;;14.40;99.90;;;;;;5071759;28;20174;-74
2023/08/08 05:19:58;;;;;;;1999.90;999.90;;;14.40;99.90;;;;;;5053883;28;20428;-74
2023/08/08 05:22:24;;;;;;;1999.90;999.90;;;14.40;99.90;;;;;;5071351;28;20182;-74
2023/08/08 05:24:49;;;;;;;1999.90;999.90;;;14.50;99.90;;;;;;5071636;28;20273;-74
2023/08/08 05:27:15;;;;;;;1999.90;999.90;;;14.50;99.90;;;;;;5071664;28;20164;-74
2023/08/08 05:29:41;;;;;;;1999.90;999.90;;;14.60;99.90;;;;;;5071726;28;20619;-74
2023/08/08 05:32:07;;;;;;;1999.90;999.90;;;14.50;99.90;;;;;;5071333;28;20165;-74
2023/08/08 05:34:34;;;;;;;1999.90;999.90;;;14.60;99.90;;;;;;5071586;28;20203;-74
2023/08/08 05:36:59;;;;;;;1999.90;999.90;;;14.70;99.90;;;;;;5071481;28;20463;-74
2023/08/08 05:39:25;;;;;;;1999.90;999.90;;;14.80;99.90;;;;;;5071409;28;20408;-74
2023/08/08 05:41:51;;;;;;;1999.90;999.90;;;14.80;99.90;;;;;;5071236;28;20185;-74
2023/08/08 05:44:17;;;;;;;1999.90;999.90;;;14.90;99.90;;;;;;5071587;28;20222;-74
2023/08/08 05:46:42;;;;;;;1999.90;999.90;;;14.90;99.90;;;;;;5071708;28;20465;-74
2023/08/08 05:49:08;;;;;;;1999.90;999.90;;;15.00;99.90;;;;;;5071445;28;20175;-74
2023/08/08 05:51:34;;;;;;;1999.90;999.90;;;15.00;99.90;;;;;;5071035;28;20277;-74
2023/08/08 05:53:59;;;;;;;1999.90;999.90;;;15.00;99.90;;;;;;5071443;28;20689;-74
2023/08/08 05:56:27;;;;;;;1999.90;999.90;;;15.10;99.90;;;;;;5071540;28;20206;-74
2023/08/08 05:58:53;;;;;;;1999.90;999.90;;;15.10;99.90;;;;;;5070584;28;20167;-74
2023/08/08 06:01:18;;;;;;;1999.90;999.90;;;15.10;99.90;;;;;;5074153;28;20471;-74
2023/08/08 06:03:44;;;;;;;1999.90;999.90;;;15.10;99.90;;;;;;5075220;28;20207;-74
2023/08/08 06:06:10;;;;;;;1999.90;999.90;;;15.20;99.90;;;;;;5074521;28;20523;-74
2023/08/08 06:08:35;;;;;;;1999.90;999.90;;;15.10;99.90;;;;;;5074690;28;20227;-74
2023/08/08 06:11:01;;;;;;;1999.90;999.90;;;15.10;99.90;;;;;;5074410;28;20187;-74
2023/08/08 06:13:26;;;;;;;1999.90;999.90;;;15.00;99.90;;;;;;5074307;28;20169;-74
2023/08/08 06:15:52;;;;;;;1999.90;999.90;;;15.00;99.90;;;;;;5074299;28;20191;-74
2023/08/08 06:18:17;;;;;;;1999.90;999.90;;;15.10;99.90;;;;;;5074453;28;20559;-74
2023/08/08 06:20:43;;;;;;;1999.90;999.90;;;15.10;99.90;;;;;;5074356;28;20191;-74
2023/08/08 06:23:08;;;;;;;1999.90;999.90;;;15.10;99.90;;;;;;5074300;28;20201;-74
2023/08/08 06:25:34;;;;;;;1999.90;999.90;;;15.20;99.90;;;;;;5074196;28;20165;-74
2023/08/08 06:28:00;;;;;;;1999.90;999.90;;;15.20;99.90;;;;;;5073995;28;20169;-74
2023/08/08 06:30:25;;;;;;;1999.90;999.90;;;15.20;99.90;;;;;;5074103;28;20670;-74
2023/08/08 06:32:51;;;;;;;1999.90;999.90;;;15.30;99.90;;;;;;5074100;28;20170;-74
2023/08/08 06:35:16;;;;;;;1999.90;999.90;;;15.40;99.90;;;;;;5074092;28;20191;-73
2023/08/08 06:37:43;;;;;;;1999.90;999.90;;;15.50;99.90;;;;;;5074081;28;20172;-74
2023/08/08 06:40:10;;;;;;;1999.90;999.90;;;15.50;99.90;;;;;;5074055;28;20190;-74
2023/08/08 06:42:36;;;;;;;1999.90;999.90;;;15.50;99.90;;;;;;5073805;28;20428;-74
2023/08/08 06:45:02;;;;;;;1999.90;999.90;;;15.50;99.90;;;;;;5077502;28;20402;-73
2023/08/08 06:47:28;;;;;;;1999.90;999.90;;;15.60;99.90;;;;;;5078656;28;20174;-73
2023/08/08 06:49:54;;;;;;;1999.90;999.90;;;15.60;99.90;;;;;;5079684;28;20472;-74
2023/08/08 06:52:21;;;;;;;1999.90;999.90;;;15.60;99.90;;;;;;5080187;28;20241;-74
2023/08/08 06:54:47;;;;;;;1999.90;999.90;;;15.70;99.90;;;;;;5061286;28;20760;-74
2023/08/08 06:57:13;;;;;;;1999.90;999.90;;;15.70;99.90;;;;;;5078776;28;20408;-73
2023/08/08 06:59:38;;;;;;;1999.90;999.90;;;15.70;99.90;;;;;;5078645;28;20231;-74
2023/08/08 07:02:04;;;;;;;1999.90;999.90;;;15.80;99.90;;;;;;5078272;28;20202;-73
2023/08/08 07:04:29;;;;;;;1999.90;999.90;;;15.90;99.90;;;;;;5079115;28;20255;-73
2023/08/08 07:06:55;;;;;;;1999.90;999.90;;;16.00;99.90;;;;;;5060678;28;20178;-74
2023/08/08 07:09:21;;;;;;;1999.90;999.90;;;16.00;99.90;;;;;;5078117;28;20565;-74
2023/08/08 07:11:47;;;;;;;1999.90;999.90;;;16.00;99.90;;;;;;5078701;28;20185;-73
2023/08/08 07:14:13;;;;;;;1999.90;999.90;;;15.90;99.90;;;;;;5078706;28;20431;-73
2023/08/08 07:16:38;;;;;;;1999.90;999.90;;;15.90;99.90;;;;;;5078125;28;20448;-73
2023/08/08 07:19:05;;;;;;;1999.90;999.90;;;15.90;99.90;;;;;;5078041;28;20627;-74
2023/08/08 07:21:31;;;;;;;1999.90;999.90;;;16.00;99.90;;;;;;5078260;28;20190;-73
2023/08/08 07:23:57;;;;;;;1999.90;999.90;;;16.10;99.90;;;;;;5078151;28;20474;-73
2023/08/08 07:26:23;;;;;;;1999.90;999.90;;;16.10;99.90;;;;;;5077780;28;20172;-73
2023/08/08 07:28:48;;;;;;;1999.90;999.90;;;16.20;99.90;;;;;;5075928;28;20411;-74
2023/08/08 07:31:14;;;;;;;1999.90;999.90;;;16.30;99.90;;;;;;5077480;28;20201;-73
2023/08/08 07:33:39;;;;;;;1999.90;999.90;;;16.40;99.90;;;;;;5078149;28;20620;-73
2023/08/08 07:36:05;;;;;;;1999.90;999.90;;;16.40;99.90;;;;;;5077266;28;20201;-72
2023/08/08 07:38:33;;;;;;;1999.90;999.90;;;16.40;99.90;;;;;;5066179;28;20178;-73
2023/08/08 07:40:58;;;;;;;1999.90;999.90;;;16.50;99.90;;;;;;5073444;28;20247;-73
2023/08/08 07:43:24;;;;;;;1999.90;999.90;;;16.50;99.90;;;;;;5064579;28;20424;-74
2023/08/08 07:45:49;;;;;;;1999.90;999.90;;;16.60;99.90;;;;;;5079206;28;20180;-73
2023/08/08 07:48:15;;;;;;;1999.90;999.90;;;16.60;99.90;;;;;;5078919;28;20168;-74
2023/08/08 07:50:41;;;;;;;1999.90;999.90;;;16.60;99.90;;;;;;5078104;28;20256;-73
2023/08/08 07:53:07;;;;;;;1999.90;999.90;;;16.40;99.90;;;;;;5063386;28;20431;-74
2023/08/08 07:55:32;;;;;;;1999.90;999.90;;;16.40;99.90;;;;;;5052665;28;20198;-73
2023/08/08 07:57:58;;;;;;;1999.90;999.90;;;16.40;99.90;;;;;;5065819;28;20974;-74
2023/08/08 08:00:24;;;;;;;1999.90;999.90;;;16.40;99.90;;;;;;5070065;28;20209;-73
2023/08/08 08:02:49;;;;;;;1999.90;999.90;;;16.40;99.90;;;;;;5070408;28;20167;-72
2023/08/08 08:05:15;;;;;;;1999.90;999.90;;;16.60;99.90;;;;;;5070003;28;20708;-74
2023/08/08 08:07:41;;;;;;;1999.90;999.90;;;16.60;99.90;;;;;;5068899;28;20184;-73
2023/08/08 08:10:09;;;;;;;1999.90;999.90;;;16.80;99.90;;;;;;5069918;28;20208;-73
2023/08/08 08:12:35;;;;;;;1999.90;999.90;;;16.80;99.90;;;;;;5065215;28;20425;-71
2023/08/08 08:15:01;;;;;;;1999.90;999.90;;;16.90;99.90;;;;;;5059393;28;20772;-72
2023/08/08 08:17:28;;;;;;;1999.90;999.90;;;16.90;99.90;;;;;;5067761;28;20422;-72
2023/08/08 08:19:54;;;;;;;1999.90;999.90;;;17.10;99.90;;;;;;5070500;28;20418;-72
2023/08/08 08:22:20;;;;;;;1999.90;999.90;;;17.30;99.90;;;;;;5070093;28;20415;-73
2023/08/08 08:24:45;;;;;;;1999.90;999.90;;;17.40;99.90;;;;;;5072092;28;20407;-73
2023/08/08 08:27:12;;;;;;;1999.90;999.90;;;17.30;99.90;;;;;;5069601;28;20255;-73
2023/08/08 08:29:37;;;;;;;1999.90;999.90;;;17.40;99.90;;;;;;5070690;28;20406;-71
2023/08/08 08:32:03;;;;;;;1999.90;999.90;;;17.50;99.90;;;;;;5052968;28;20482;-73
2023/08/08 08:34:29;;;;;;;1999.90;999.90;;;17.60;99.90;;;;;;5067247;28;20184;-72
2023/08/08 08:36:54;;;;;;;1999.90;999.90;;;17.60;99.90;;;;;;5062783;28;20454;-72
2023/08/08 08:39:20;;;;;;;1999.90;999.90;;;17.60;99.90;;;;;;5067399;28;20177;-72
2023/08/08 08:41:54;;;;;;;1999.90;999.90;;;17.70;99.90;;;;;;5065703;28;20663;-72
2023/08/08 08:44:21;;;;;;;1999.90;999.90;;;17.80;99.90;;;;;;5065783;28;20175;-72
2023/08/08 08:46:50;;;;;;;1999.90;999.90;;;17.90;99.90;;;;;;5067612;28;20423;-72
2023/08/08 08:49:18;;;;;;;1999.90;999.90;;;17.90;99.90;;;;;;5049903;28;20543;-73
2023/08/08 08:51:44;;;;;;;1999.90;999.90;;;17.90;99.90;;;;;;5066654;28;20438;-75
2023/08/08 08:54:10;;;;;;;1999.90;999.90;;;18.00;99.90;;;;;;5071463;28;20404;-72
2023/08/08 08:56:36;;;;;;;1999.90;999.90;;;18.10;99.90;;;;;;5071331;28;20451;-73
2023/08/08 08:59:02;;;;;;;1999.90;999.90;;;18.10;99.90;;;;;;5071274;28;20534;-73
2023/08/08 09:01:28;;;;;;;1999.90;999.90;;;18.10;99.90;;;;;;5071163;28;20207;-73
2023/08/08 09:03:55;;;;;;;1999.90;999.90;;;18.10;99.90;;;;;;5071425;28;20451;-73
2023/08/08 09:06:23;;;;;;;1999.90;999.90;;;18.10;99.90;;;;;;5071409;28;20479;-73
2023/08/08 09:08:48;;;;;;;1999.90;999.90;;;18.20;99.90;;;;;;5071563;28;20411;-73
2023/08/08 09:11:14;;;;;;;1999.90;999.90;;;18.30;99.90;;;;;;5071264;28;20441;-73
2023/08/08 09:13:40;;;;;;;1999.90;999.90;;;18.40;99.90;;;;;;5071871;28;20211;-74
2023/08/08 09:16:08;;;;;;;1999.90;999.90;;;18.50;99.90;;;;;;5071792;28;20209;-74
2023/08/08 09:18:34;;;;;;;1999.90;999.90;;;18.70;99.90;;;;;;5067595;28;21256;-73
2023/08/08 09:21:00;;;;;;;1999.90;999.90;;;18.70;99.90;;;;;;5065912;28;20441;-73
2023/08/08 09:23:26;;;;;;;1999.90;999.90;;;18.60;99.90;;;;;;5070471;28;20755;-73
2023/08/08 09:25:51;;;;;;;1999.90;999.90;;;18.50;99.90;;;;;;5071595;28;20492;-73
2023/08/08 09:28:17;;;;;;;1999.90;999.90;;;18.50;99.90;;;;;;5071494;28;20712;-73
2023/08/08 09:30:44;;;;;;;1999.90;999.90;;;18.50;99.90;;;;;;5071446;28;20669;-73
2023/08/08 09:33:09;;;;;;;1999.90;999.90;;;18.60;99.90;;;;;;5074574;28;20425;-73
2023/08/08 09:35:39;;;;;;;1999.90;999.90;;;18.70;99.90;;;;;;5075255;28;20453;-73
2023/08/08 09:38:04;;;;;;;1999.90;999.90;;;18.50;99.90;;;;;;5075403;28;20267;-73
2023/08/08 09:40:30;;;;;;;1999.90;999.90;;;18.60;99.90;;;;;;5075243;28;20538;-73
2023/08/08 09:42:58;;;;;;;1999.90;999.90;;;18.60;99.90;;;;;;5075065;28;20159;-73
2023/08/08 09:45:24;;;;;;;1999.90;999.90;;;18.60;99.90;;;;;;5075194;28;20780;-73
2023/08/08 09:47:52;;;;;;;1999.90;999.90;;;18.60;99.90;;;;;;5075195;28;20409;-73
2023/08/08 09:50:19;;;;;;;1999.90;999.90;;;18.70;99.90;;;;;;5075033;28;20431;-73
2023/08/08 09:52:46;;;;;;;1999.90;999.90;;;18.70;99.90;;;;;;5074902;28;20404;-73
2023/08/08 09:55:12;;;;;;;1999.90;999.90;;;18.80;99.90;;;;;;5074833;28;20540;-73
2023/08/08 09:57:39;;;;;;;1999.90;999.90;;;18.60;99.90;;;;;;5074999;28;20440;-73
2023/08/08 10:00:11;;;;;;;1999.90;999.90;;;18.50;99.90;;;;;;5074693;28;20475;-73
2023/08/08 10:02:37;;;;;;;1999.90;999.90;;;18.40;99.90;;;;;;5074716;28;20536;-73
2023/08/08 10:05:06;;;;;;;1999.90;999.90;;;18.30;99.90;;;;;;5074862;28;20487;-73
2023/08/08 10:07:32;;;;;;;1999.90;999.90;;;18.40;99.90;;;;;;5074982;28;20176;-73
2023/08/08 10:09:59;;;;;;;1999.90;999.90;;;18.50;99.90;;;;;;5076161;28;20422;-72
2023/08/08 10:12:26;;;;;;;1999.90;999.90;;;18.50;99.90;;;;;;5076019;28;20292;-73
2023/08/08 10:14:52;;;;;;;1999.90;999.90;;;18.70;99.90;;;;;;5076296;28;20406;-73
2023/08/08 10:17:18;;;;;;;1999.90;999.90;;;18.90;99.90;;;;;;5076118;28;20420;-72
2023/08/08 10:19:57;;;;;;;1999.90;999.90;;;19.10;99.90;;;;;;5075808;28;20548;-73
2023/08/08 10:22:24;;;;;;;1999.90;999.90;;;19.00;99.90;;;;;;5075761;28;20486;-73
2023/08/08 10:24:54;;;;;;;1999.90;999.90;;;19.10;99.90;;;;;;5076141;28;20768;-73
2023/08/08 10:27:36;;;;;;;1999.90;999.90;;;19.00;99.90;;;;;;5075990;28;20829;-72
2023/08/08 10:30:10;;;;;;;1999.90;999.90;;;19.10;99.90;;;;;;5075895;28;20422;-73
2023/08/08 10:32:40;;;;;;;1999.90;999.90;;;19.20;99.90;;;;;;5075762;28;20407;-73
2023/08/08 10:35:08;;;;;;;1999.90;999.90;;;19.10;99.90;;;;;;5076099;28;20910;-73
2023/08/08 10:37:34;;;;;;;1999.90;999.90;;;19.20;99.90;;;;;;5076445;28;20470;-72
2023/08/08 10:40:05;;;;;;;1999.90;999.90;;;19.20;99.90;;;;;;5076081;28;20427;-73
2023/08/08 10:42:32;;;;;;;1999.90;999.90;;;19.10;99.90;;;;;;5075634;28;20474;-73
2023/08/08 10:44:59;;;;;;;1999.90;999.90;;;19.00;99.90;;;;;;5075946;28;20449;-73
2023/08/08 10:47:27;;;;;;;1999.90;999.90;;;18.90;99.90;;;;;;5076436;28;20481;-73
2023/08/08 10:50:12;;;;;;;1999.90;999.90;;;19.00;99.90;;;;;;5075706;28;20937;-73
2023/08/08 10:52:52;;;;;;;1999.90;999.90;;;19.00;99.90;;;;;;5075574;28;20399;-73
2023/08/08 10:55:31;;;;;;;1999.90;999.90;;;19.10;99.90;;;;;;5075994;28;20442;-73
2023/08/08 10:58:08;;;;;;;1999.90;999.90;;;19.10;99.90;;;;;;5075866;28;20445;-72
2023/08/08 11:00:37;;;;;;;1999.90;999.90;;;19.00;99.90;;;;;;5075540;28;20439;-73
2023/08/08 11:03:06;;;;;;;1999.90;999.90;;;19.00;99.90;;;;;;5075303;28;20426;-73
2023/08/08 11:05:36;;;;;;;1999.90;999.90;;;18.90;99.90;;;;;;5076458;28;20416;-73
2023/08/08 11:08:05;;;;;;;1999.90;999.90;;;18.80;99.90;;;;;;5075458;28;20392;-73
2023/08/08 11:10:41;;;;;;;1999.90;999.90;;;18.80;99.90;;;;;;5075187;28;20424;-73
2023/08/08 11:13:08;;;;;;;1999.90;999.90;;;18.90;99.90;;;;;;5075384;28;20878;-72
2023/08/08 11:15:34;;;;;;;1999.90;999.90;;;18.90;99.90;;;;;;5075242;28;20491;-73
2023/08/08 11:18:01;;;;;;;1999.90;999.90;;;19.10;99.90;;;;;;5075501;28;20398;-73
2023/08/08 11:20:34;;;;;;;1999.90;999.90;;;19.30;99.90;;;;;;5075091;28;20421;-73
2023/08/08 11:23:00;;;;;;;1999.90;999.90;;;19.40;99.90;;;;;;5074524;28;20450;-73
2023/08/08 11:25:28;;;;;;;1999.90;999.90;;;19.50;99.90;;;;;;5074105;28;20424;-72
2023/08/08 11:27:55;;;;;;;1999.90;999.90;;;19.60;99.90;;;;;;5073729;28;20397;-72
2023/08/08 11:30:22;;;;;;;1999.90;999.90;;;19.60;99.90;;;;;;5073234;28;20420;-73
2023/08/08 11:32:49;;;;;;;1999.90;999.90;;;19.60;99.90;;;;;;5073136;28;20549;-73
2023/08/08 11:35:25;;;;;;;1999.90;999.90;;;19.70;99.90;;;;;;5073092;28;20527;-73
2023/08/08 11:37:57;;;;;;;1999.90;999.90;;;19.60;99.90;;;;;;5072938;28;20451;-73
2023/08/08 11:40:25;;;;;;;1999.90;999.90;;;19.50;99.90;;;;;;5073000;28;20514;-73
2023/08/08 11:42:51;;;;;;;1999.90;999.90;;;19.40;99.90;;;;;;5072957;28;20775;-73
2023/08/08 11:45:18;;;;;;;1999.90;999.90;;;19.60;99.90;;;;;;5072989;28;20473;-73
2023/08/08 11:47:47;;;;;;;1999.90;999.90;;;19.60;99.90;;;;;;5072820;28;20407;-73
2023/08/08 11:50:13;;;;;;;1999.90;999.90;;;19.60;99.90;;;;;;5072759;28;20796;-73
2023/08/08 11:52:45;;;;;;;1999.90;999.90;;;19.50;99.90;;;;;;5072565;28;20410;-73
2023/08/08 11:55:11;;;;;;;1999.90;999.90;;;19.50;99.90;;;;;;5072207;28;20177;-73